Terminal Aerodrome Forecast
Issued by NWS Jacksonville, FL

Home | Current Version | Previous Version | Text Only | Print | Product List | Glossary On
Versions: 1 2 3 4 5 6 7 8 9 10 11 12 13 14
000
FTUS42 KJAX 221500 AAA
TAFSSI
TAF AMD
KSSI 221518Z 2215/2312 04012G20KT P6SM OVC035
     FM222100 05015G25KT P6SM VCSH BKN025 OVC070
     FM230200 06013KT 5SM -RA BR OVC015 WS020/10040KT=

USA.gov is the U.S. government's official web portal to all federal, state and local government web resources and services.